Sea Bird — 9V2730 — position and weather

sailwx.info

Track history (hours):
 
Tides and Currents Weather Stations Pressure Air Temp Water Temp Dewpoint Dewpoint Depression Visibility Wind Speed Wind Dir Waves Ship Positions

Sea Bird

Last reported at 2017-Sep-20 00:14 UTC. Time now 2017-Sep-21 05:26 UTC.
Position N 34°47' E 023°19'.

Length 225 m; draft 8.2 m.

Type: Tanker. MMSI: 564643000.

Date/timePositionNaut miles runAvg speedWind from/ knotsBaromVisibWave heightAir tempDewpointWater temp
2017-Sep-20 00:14N 34°47' E 023°19'514.5
2017-Sep-19 23:54N 34°46' E 023°25'  
2017-Sep-11 02:20N 35°42' E 033°14'616.4
2017-Sep-11 01:58N 35°41' E 033°07'816.3
2017-Sep-11 01:29N 35°39' E 032°57'816.4
2017-Sep-11 01:00N 35°37' E 032°48'816.3
2017-Sep-11 00:31N 35°35' E 032°38'816.4
2017-Sep-11 00:00N 35°33' E 032°28'816.8
2017-Sep-10 23:31N 35°31' E 032°18'917.0
2017-Sep-10 23:01N 35°29' E 032°08'917.0
2017-Sep-10 22:31N 35°27' E 031°58'917.0
2017-Sep-10 22:01N 35°25' E 031°48'816.8
2017-Sep-10 21:31N 35°23' E 031°38'816.7
2017-Sep-10 21:01N 35°21' E 031°28'816.6
2017-Sep-10 20:31N 35°19' E 031°18'816.6
2017-Sep-10 20:01N 35°17' E 031°08'816.6
2017-Sep-10 19:30N 35°15' E 030°58'816.4
2017-Sep-10 19:01N 35°13' E 030°49'816.3
2017-Sep-10 18:31N 35°11' E 030°39'816.1
2017-Sep-10 18:01N 35°09' E 030°30'815.9
2017-Sep-10 17:29N 35°07' E 030°20'3316.0
2017-Sep-10 15:26N 35°03' E 029°40'816.6
2017-Sep-10 14:58N 35°02' E 029°31'1717.2
2017-Sep-10 14:00N 34°59' E 029°11'1117.3
2017-Sep-10 13:23N 34°58' E 028°57'4016.6
2017-Sep-10 10:59N 34°52' E 028°10'  
Track history (hours):
 
Tides and Currents Weather Stations Pressure Air Temp Water Temp Dewpoint Dewpoint Depression Visibility Wind Speed Wind Dir Waves Ship Positions

Sea Bird

Last reported at 2017-Sep-20 00:14 UTC. Time now 2017-Sep-21 05:26 UTC.
Position N 34°47' E 023°19'.

Length 225 m; draft 8.2 m.

Type: Tanker. MMSI: 564643000.

Date/timePositionNaut miles runAvg speedWind from/ knotsBaromVisibWave heightAir tempDewpointWater temp
2017-Sep-20 00:14N 34°47' E 023°19'514.5
2017-Sep-19 23:54N 34°46' E 023°25'  
2017-Sep-11 02:20N 35°42' E 033°14'616.4
2017-Sep-11 01:58N 35°41' E 033°07'816.3
2017-Sep-11 01:29N 35°39' E 032°57'816.4
2017-Sep-11 01:00N 35°37' E 032°48'816.3
2017-Sep-11 00:31N 35°35' E 032°38'816.4
2017-Sep-11 00:00N 35°33' E 032°28'816.8
2017-Sep-10 23:31N 35°31' E 032°18'917.0
2017-Sep-10 23:01N 35°29' E 032°08'917.0
2017-Sep-10 22:31N 35°27' E 031°58'917.0
2017-Sep-10 22:01N 35°25' E 031°48'816.8
2017-Sep-10 21:31N 35°23' E 031°38'816.7
2017-Sep-10 21:01N 35°21' E 031°28'816.6
2017-Sep-10 20:31N 35°19' E 031°18'816.6
2017-Sep-10 20:01N 35°17' E 031°08'816.6
2017-Sep-10 19:30N 35°15' E 030°58'816.4
2017-Sep-10 19:01N 35°13' E 030°49'816.3
2017-Sep-10 18:31N 35°11' E 030°39'816.1
2017-Sep-10 18:01N 35°09' E 030°30'815.9
2017-Sep-10 17:29N 35°07' E 030°20'3316.0
2017-Sep-10 15:26N 35°03' E 029°40'816.6
2017-Sep-10 14:58N 35°02' E 029°31'1717.2
2017-Sep-10 14:00N 34°59' E 029°11'1117.3
2017-Sep-10 13:23N 34°58' E 028°57'4016.6
2017-Sep-10 10:59N 34°52' E 028°10'  

Dump ship's entire track history